Date,TemperatureHighF,TemperatureAvgF,TemperatureLowF,DewpointHighF,DewpointAvgF,DewpointLowF,HumidityHigh,HumidityAvg,HumidityLow,PressureMaxIn,PressureMinIn,WindSpeedMaxMPH,WindSpeedAvgMPH,GustSpeedMaxMPH,PrecipitationSumIn
2013-7-1,79.9,68.2,64.4,71.0,63.3,-99.9,96,88,71,29.90,29.78,3,-21,9,0.59
2013-7-2,83.4,72.6,65.6,71.0,67.4,65.0,98,85,60,29.99,29.88,4,0,8,0.01
2013-7-3,81.0,75.2,69.4,71.0,69.2,68.0,95,82,68,30.09,29.99,6,1,8,0.00
2013-7-4,73.7,70.4,68.3,71.0,68.6,67.0,98,94,87,30.13,30.05,2,0,4,1.25
2013-7-5,76.8,70.9,66.5,72.0,68.9,66.0,98,93,83,30.13,30.06,7,1,9,0.15
2013-7-6,77.9,71.4,68.3,74.0,70.1,67.0,98,95,85,30.11,30.03,9,0,9,1.92
2013-7-7,84.4,73.6,66.3,71.0,68.0,66.0,98,84,58,30.10,30.00,5,0,8,0.00
2013-7-8,88.5,77.2,66.8,73.0,70.0,66.0,97,80,55,30.11,30.01,5,1,11,0.00
2013-7-9,91.2,81.0,75.8,79.0,74.6,72.0,93,81,59,30.05,29.94,7,1,14,0.05
2013-7-10,90.6,78.9,69.4,80.0,74.3,68.0,95,86,66,29.96,29.79,9,1,16,0.21
2013-7-11,83.3,73.1,67.3,70.0,66.7,59.0,98,81,58,29.99,29.90,2,0,6,0.00
2013-7-12,81.9,71.9,61.4,64.0,59.6,57.0,88,67,46,30.07,29.99,3,0,8,0.00
2013-7-13,85.5,75.7,66.9,70.0,65.7,61.0,85,72,54,30.10,30.03,4,0,7,0.00
2013-7-14,89.8,79.6,70.5,76.0,71.6,67.0,94,77,60,30.18,30.09,7,1,11,0.05
2013-7-15,92.9,81.8,72.3,74.0,72.6,67.0,96,76,43,30.26,30.18,4,0,6,0.00
2013-7-16,94.9,83.5,72.5,76.0,72.9,70.0,95,72,47,30.30,30.21,3,0,5,0.00
2013-7-17,94.2,82.3,74.2,79.0,75.6,73.0,95,81,54,30.28,30.14,3,0,6,0.06
2013-7-18,95.3,84.7,74.9,78.0,73.9,69.0,97,73,45,30.16,29.98,5,0,10,0.00
2013-7-19,90.0,81.6,75.0,79.0,75.6,72.0,95,82,63,30.01,29.86,5,0,12,0.27
2013-7-20,90.6,79.6,72.4,75.0,72.7,67.0,92,80,57,29.89,29.80,9,1,20,0.05
2013-7-21,88.4,78.1,70.2,75.0,71.1,68.0,95,80,59,29.93,29.84,2,0,6,0.14
2013-7-22,79.2,73.0,69.9,74.0,71.4,69.0,97,95,81,29.88,29.74,2,0,4,0.61
2013-7-23,88.8,76.4,69.8,76.0,71.9,68.0,98,87,63,29.81,29.70,9,1,12,0.04
2013-7-24,79.5,69.5,60.6,68.0,61.6,57.0,90,77,54,29.97,29.79,4,0,8,0.00
2013-7-25,79.9,69.3,59.0,61.0,57.4,53.0,87,68,42,30.06,29.98,3,0,7,0.00
2013-7-26,80.5,70.3,58.5,66.0,60.7,57.0,96,74,47,30.07,29.95,5,1,7,0.00
2013-7-27,75.2,69.3,64.8,69.0,64.8,59.0,97,86,70,29.95,29.82,5,0,14,0.39
2013-7-28,75.3,66.2,55.7,59.0,53.3,50.0,91,65,44,30.04,29.89,7,1,14,0.01
2013-7-29,80.6,68.1,56.5,60.0,57.2,54.0,95,71,44,30.16,30.04,6,0,9,0.00
2013-7-30,80.6,69.9,58.6,67.0,62.3,57.0,97,78,51,30.21,30.09,2,0,5,0.00
2013-7-31,76.6,70.9,65.2,69.0,66.5,64.0,96,86,76,30.09,29.92,2,0,7,0.04